Time;durP1;ratioP1;P1;durP2;ratioP2;P2;SDS_P1;SDS_P2;PMS_P1;PMS_P2;Temp;Humidity;BMP_temperature;BMP_pressure;BME280_temperature;BME280_humidity;BME280_pressure;Samples;Min_cycle;Max_cycle;Signal;HPM_P1;HPM_P2
2020/12/15 00:01:26;;;;;;;27.65;4.80;;;20.70;98.80;;;;;;5049908;28;20376;-85
2020/12/15 00:03:53;;;;;;;42.40;6.38;;;20.70;98.40;;;;;;5049652;28;20395;-85
2020/12/15 00:06:20;;;;;;;35.08;5.40;;;20.70;98.60;;;;;;5049933;28;20376;-84
2020/12/15 00:08:47;;;;;;;34.05;5.68;;;20.70;98.70;;;;;;5050760;28;20849;-83
2020/12/15 00:11:18;;;;;;;37.63;5.70;;;20.80;98.60;;;;;;5051256;28;20384;-84
2020/12/15 00:13:46;;;;;;;33.05;5.55;;;20.80;98.50;;;;;;5049979;28;20387;-85
2020/12/15 00:16:18;;;;;;;29.02;5.00;;;20.80;98.50;;;;;;5050166;28;20451;-87
2020/12/15 00:18:45;;;;;;;29.55;5.50;;;20.80;98.50;;;;;;5049980;28;20491;-87
2020/12/15 00:21:23;;;;;;;26.85;5.05;;;20.90;98.70;;;;;;5050952;28;20581;-85
2020/12/15 00:23:52;;;;;;;39.63;6.10;;;20.80;98.50;;;;;;5029883;28;20389;-88
2020/12/15 00:26:20;;;;;;;31.00;5.50;;;20.80;98.40;;;;;;5030028;28;20465;-85
2020/12/15 00:28:51;;;;;;;41.00;6.00;;;20.80;98.60;;;;;;5029850;28;20897;-86
2020/12/15 00:31:19;;;;;;;37.17;6.07;;;20.90;99.10;;;;;;5029758;28;20412;-88
2020/12/15 00:33:46;;;;;;;39.90;6.03;;;20.90;98.70;;;;;;5029858;28;20841;-87
2020/12/15 00:36:22;;;;;;;42.22;5.93;;;20.90;98.60;;;;;;5063599;28;20398;-87
2020/12/15 00:38:49;;;;;;;35.70;6.32;;;21.00;98.40;;;;;;5069684;28;20781;-87
2020/12/15 00:41:16;;;;;;;34.20;5.57;;;20.90;98.40;;;;;;5067954;28;20461;-83
2020/12/15 00:43:43;;;;;;;41.75;6.57;;;20.90;98.50;;;;;;5052704;28;20372;-85
2020/12/15 00:46:14;;;;;;;38.00;6.28;;;21.00;98.30;;;;;;5049240;28;20412;-86
2020/12/15 00:48:42;;;;;;;38.17;5.90;;;21.00;98.90;;;;;;5050709;28;20404;-87
2020/12/15 00:51:14;;;;;;;27.70;4.53;;;21.20;98.70;;;;;;5049615;28;20383;-85
2020/12/15 00:53:41;;;;;;;32.13;5.40;;;21.20;97.80;;;;;;5049254;28;20372;-84
2020/12/15 00:56:08;;;;;;;33.17;5.75;;;21.30;98.70;;;;;;5053797;28;20391;-86
2020/12/15 00:58:36;;;;;;;27.60;4.88;;;21.40;98.60;;;;;;5052933;28;20481;-86
2020/12/15 01:01:05;;;;;;;23.75;4.55;;;21.50;98.20;;;;;;5050315;28;20475;-85
2020/12/15 01:03:33;;;;;;;25.92;4.32;;;21.50;97.40;;;;;;5054804;28;20397;-86
2020/12/15 01:06:00;;;;;;;24.05;4.55;;;21.60;97.20;;;;;;5068570;28;20397;-83
2020/12/15 01:08:27;;;;;;;28.20;3.95;;;21.60;97.50;;;;;;5069062;28;20881;-84
2020/12/15 01:10:55;;;;;;;21.65;3.50;;;21.50;97.60;;;;;;5044675;28;20530;-85
2020/12/15 01:13:22;;;;;;;25.73;3.97;;;21.50;97.20;;;;;;5029338;28;20420;-87
2020/12/15 01:15:49;;;;;;;20.90;4.30;;;21.60;97.60;;;;;;5034023;28;20956;-86
2020/12/15 01:18:16;;;;;;;22.63;4.38;;;20.60;97.20;;;;;;5015784;28;20602;-85
2020/12/15 01:20:43;;;;;;;26.58;4.57;;;21.50;97.50;;;;;;5056217;28;20386;-88
2020/12/15 01:23:10;;;;;;;28.70;4.72;;;21.50;97.50;;;;;;5062737;28;20724;-86
2020/12/15 01:25:37;;;;;;;29.45;5.15;;;21.50;97.40;;;;;;5047228;28;20761;-85
2020/12/15 01:28:04;;;;;;;29.10;5.35;;;21.60;97.70;;;;;;5046877;28;20882;-85
2020/12/15 01:30:31;;;;;;;22.35;4.60;;;21.80;97.60;;;;;;5032380;28;20768;-85
2020/12/15 01:32:58;;;;;;;34.70;5.70;;;22.00;96.90;;;;;;5052836;28;20445;-84
2020/12/15 01:35:25;;;;;;;32.75;5.15;;;22.00;97.20;;;;;;5041616;28;20483;-85
2020/12/15 01:37:52;;;;;;;38.45;6.22;;;22.00;95.60;;;;;;5044936;28;20383;-87
2020/12/15 01:40:19;;;;;;;27.77;5.60;;;22.00;96.10;;;;;;5046186;28;20414;-84
2020/12/15 01:42:47;;;;;;;33.35;5.97;;;21.80;95.50;;;;;;5013656;28;20398;-86
2020/12/15 01:45:14;;;;;;;35.55;5.93;;;21.60;96.50;;;;;;5065703;28;20398;-86
2020/12/15 01:47:42;;;;;;;37.13;5.83;;;21.50;96.40;;;;;;5052576;28;20392;-86
2020/12/15 01:50:10;;;;;;;37.65;5.82;;;21.50;96.30;;;;;;5040341;28;20769;-85
2020/12/15 01:52:37;;;;;;;33.37;6.00;;;21.40;96.60;;;;;;5019260;28;20555;-83
2020/12/15 01:55:05;;;;;;;36.10;6.10;;;21.50;96.60;;;;;;5047829;28;20428;-81
2020/12/15 01:57:32;;;;;;;41.10;7.43;;;21.60;96.60;;;;;;5051854;28;20376;-82
2020/12/15 01:59:59;;;;;;;36.20;6.25;;;21.70;96.90;;;;;;5045422;28;20442;-84
2020/12/15 02:02:26;;;;;;;36.47;5.80;;;21.90;96.00;;;;;;5047410;28;20383;-82
2020/12/15 02:04:53;;;;;;;33.28;6.22;;;21.80;96.00;;;;;;5058547;28;20467;-84
2020/12/15 02:07:20;;;;;;;39.72;6.25;;;21.90;96.20;;;;;;5071194;28;20374;-83
2020/12/15 02:09:47;;;;;;;34.45;5.65;;;22.10;96.90;;;;;;5071537;28;20868;-84
2020/12/15 02:12:15;;;;;;;31.77;5.53;;;22.30;96.60;;;;;;5059696;28;20390;-83
2020/12/15 02:14:45;;;;;;;34.88;5.68;;;22.20;95.50;;;;;;5032906;28;20434;-85
2020/12/15 02:17:15;;;;;;;35.88;6.00;;;22.20;96.30;;;;;;5052434;28;20378;-85
2020/12/15 02:19:42;;;;;;;26.45;4.97;;;22.00;96.00;;;;;;5061697;28;20471;-84
2020/12/15 02:22:09;;;;;;;28.45;5.03;;;21.90;95.80;;;;;;5056262;28;20375;-83
2020/12/15 02:24:36;;;;;;;36.47;5.53;;;21.70;96.10;;;;;;5053071;28;20405;-84
2020/12/15 02:27:03;;;;;;;33.00;5.80;;;21.70;97.10;;;;;;5051757;28;20380;-84
2020/12/15 02:29:30;;;;;;;36.92;6.25;;;21.60;97.00;;;;;;5051149;28;20747;-83
2020/12/15 02:31:57;;;;;;;41.63;6.68;;;21.40;96.80;;;;;;5051772;28;20465;-84
2020/12/15 02:34:24;;;;;;;39.15;6.07;;;21.50;97.40;;;;;;5051416;28;20395;-86
2020/12/15 02:36:51;;;;;;;40.55;6.22;;;21.50;97.20;;;;;;5051758;28;20374;-85
2020/12/15 02:39:19;;;;;;;35.40;5.77;;;21.50;97.00;;;;;;5048689;28;20907;-85
2020/12/15 02:41:53;;;;;;;37.05;6.00;;;21.50;96.70;;;;;;5051898;28;20372;-84
2020/12/15 02:44:21;;;;;;;38.90;6.50;;;21.50;96.60;;;;;;5051472;28;20392;-83
2020/12/15 02:46:48;;;;;;;35.17;5.93;;;21.70;96.80;;;;;;5042717;28;20489;-85
2020/12/15 02:49:15;;;;;;;40.53;6.45;;;21.90;96.40;;;;;;5050575;28;20402;-83
2020/12/15 02:51:45;;;;;;;31.45;5.43;;;22.00;96.50;;;;;;5056202;28;20395;-86
2020/12/15 02:54:12;;;;;;;25.03;4.60;;;22.00;96.50;;;;;;5050678;28;20427;-84
2020/12/15 02:56:39;;;;;;;20.80;4.30;;;21.80;96.50;;;;;;5051281;28;20376;-85
2020/12/15 02:59:06;;;;;;;30.40;5.03;;;21.60;96.60;;;;;;5049975;28;20490;-83
2020/12/15 03:01:44;;;;;;;23.48;4.22;;;21.30;97.30;;;;;;5050796;28;20411;-86
2020/12/15 03:04:12;;;;;;;34.50;5.97;;;21.20;97.70;;;;;;5044577;28;20458;-85
2020/12/15 03:06:39;;;;;;;31.05;5.97;;;21.10;98.00;;;;;;5041959;28;20416;-85
2020/12/15 03:09:09;;;;;;;41.08;6.22;;;21.20;98.00;;;;;;5042543;28;20486;-86
2020/12/15 03:11:37;;;;;;;41.58;6.40;;;21.20;98.20;;;;;;5073300;28;20374;-85
2020/12/15 03:14:04;;;;;;;33.38;6.00;;;21.20;98.40;;;;;;5031500;28;20400;-87
2020/12/15 03:16:31;;;;;;;43.37;6.30;;;21.20;98.40;;;;;;5018641;28;20473;-88
2020/12/15 03:18:59;;;;;;;39.17;6.63;;;21.30;98.20;;;;;;5041332;28;20399;-85
2020/12/15 03:21:27;;;;;;;34.92;5.78;;;21.40;98.10;;;;;;5046365;28;20443;-84
2020/12/15 03:23:54;;;;;;;32.75;5.63;;;21.50;98.00;;;;;;5043524;28;20926;-87
2020/12/15 03:26:23;;;;;;;25.92;5.25;;;21.50;97.70;;;;;;5046115;28;21029;-88
2020/12/15 03:28:50;;;;;;;29.17;4.88;;;21.40;97.40;;;;;;5041898;28;20439;-88
2020/12/15 03:31:17;;;;;;;35.80;5.82;;;21.40;97.60;;;;;;5045294;28;20398;-87
2020/12/15 03:33:45;;;;;;;31.70;5.00;;;21.30;97.90;;;;;;5033024;28;20425;-86
2020/12/15 03:36:12;;;;;;;30.77;5.63;;;21.30;97.80;;;;;;5037276;28;20401;-87
2020/12/15 03:38:39;;;;;;;31.88;5.32;;;21.20;98.40;;;;;;5031975;28;20432;-87
2020/12/15 03:41:06;;;;;;;26.15;5.25;;;21.20;98.00;;;;;;5037711;28;20393;-86
2020/12/15 03:43:33;;;;;;;31.35;5.72;;;21.10;98.20;;;;;;5045084;28;20418;-88
2020/12/15 03:46:00;;;;;;;37.73;6.27;;;21.10;98.50;;;;;;5043156;28;20546;-85
2020/12/15 03:48:27;;;;;;;40.30;6.27;;;21.20;98.70;;;;;;5041508;28;20406;-86
2020/12/15 03:50:55;;;;;;;32.85;5.53;;;21.20;98.90;;;;;;5043083;28;20384;-87
2020/12/15 03:53:22;;;;;;;33.25;5.60;;;21.20;98.80;;;;;;5049146;28;20770;-90
2020/12/15 03:55:49;;;;;;;33.90;5.95;;;21.10;98.60;;;;;;5014510;28;20793;-88
2020/12/15 03:58:17;;;;;;;41.22;6.22;;;21.10;98.00;;;;;;5042001;28;20378;-88
2020/12/15 04:00:45;;;;;;;35.28;6.60;;;21.00;98.30;;;;;;5067750;28;20858;-87
2020/12/15 04:03:12;;;;;;;41.08;6.57;;;21.00;98.70;;;;;;5066892;28;20690;-87
2020/12/15 04:05:40;;;;;;;42.28;5.72;;;21.10;98.80;;;;;;5063160;28;20895;-88
2020/12/15 04:08:07;;;;;;;32.58;5.43;;;21.10;98.80;;;;;;5048520;28;20421;-86
2020/12/15 04:10:34;;;;;;;33.90;5.72;;;21.20;98.60;;;;;;5030059;28;20396;-85
2020/12/15 04:13:01;;;;;;;33.17;5.60;;;21.20;98.80;;;;;;5046894;28;20410;-85
2020/12/15 04:15:31;;;;;;;33.42;5.53;;;21.20;98.60;;;;;;5042850;28;20485;-86
2020/12/15 04:17:58;;;;;;;20.83;4.03;;;21.20;98.90;;;;;;5039954;28;20395;-86
2020/12/15 04:20:25;;;;;;;23.45;3.75;;;21.20;98.80;;;;;;5043893;28;20416;-87
2020/12/15 04:22:52;;;;;;;20.23;4.05;;;21.20;98.90;;;;;;5043788;28;20953;-86
2020/12/15 04:25:19;;;;;;;21.73;4.10;;;21.10;98.40;;;;;;5049653;28;20384;-84
2020/12/15 04:27:46;;;;;;;27.87;4.57;;;21.00;98.70;;;;;;5049811;28;20799;-85
2020/12/15 04:30:13;;;;;;;30.55;5.65;;;20.90;98.80;;;;;;5046690;28;20411;-87
2020/12/15 04:32:40;;;;;;;36.63;5.70;;;20.90;99.00;;;;;;5059282;28;20388;-85
2020/12/15 04:35:07;;;;;;;39.28;5.63;;;20.80;99.00;;;;;;5043554;28;20388;-86
2020/12/15 04:37:34;;;;;;;41.33;6.57;;;20.90;99.30;;;;;;5059239;28;20408;-86
2020/12/15 04:40:01;;;;;;;46.83;7.55;;;20.90;99.20;;;;;;5054828;28;20462;-88
2020/12/15 04:42:28;;;;;;;44.25;7.53;;;20.90;99.50;;;;;;5052662;28;20388;-90
2020/12/15 04:44:55;;;;;;;44.60;6.72;;;20.90;99.10;;;;;;5048397;28;20410;-88
2020/12/15 04:47:46;;;;;;;43.47;7.07;;;20.90;99.10;;;;;;5053433;28;20399;-87
2020/12/15 04:50:16;;;;;;;44.88;7.18;;;20.90;99.20;;;;;;5047575;28;20506;-86
2020/12/15 04:52:46;;;;;;;43.83;6.93;;;20.90;99.40;;;;;;5048460;28;20417;-89
2020/12/15 04:55:14;;;;;;;45.47;7.38;;;21.00;99.40;;;;;;5030776;28;20487;-89
2020/12/15 04:57:41;;;;;;;43.10;6.68;;;20.90;99.10;;;;;;5049441;28;20371;-89
2020/12/15 05:00:10;;;;;;;44.53;6.38;;;20.90;99.00;;;;;;5032607;28;20380;-88
2020/12/15 05:02:47;;;;;;;49.25;7.75;;;20.90;99.00;;;;;;5023368;28;20400;-90
2020/12/15 05:05:15;;;;;;;46.70;6.65;;;20.90;99.20;;;;;;5062003;28;20726;-88
2020/12/15 05:07:45;;;;;;;38.53;6.63;;;21.00;99.10;;;;;;5049185;28;20371;-87
2020/12/15 05:10:17;;;;;;;39.05;6.60;;;21.00;99.00;;;;;;5030633;28;20803;-86
2020/12/15 05:12:46;;;;;;;42.63;6.40;;;21.00;99.20;;;;;;5046891;28;20490;-85
2020/12/15 05:15:18;;;;;;;41.70;6.03;;;21.10;98.90;;;;;;5048847;28;20386;-85
2020/12/15 05:17:46;;;;;;;40.97;5.88;;;21.00;98.70;;;;;;5058981;28;20385;-88
2020/12/15 05:20:18;;;;;;;41.60;6.55;;;21.00;99.00;;;;;;5067906;28;20382;-89
2020/12/15 05:22:47;;;;;;;35.55;6.55;;;21.00;98.80;;;;;;5068623;28;20738;-85
2020/12/15 05:25:32;;;;;;;36.13;5.63;;;21.10;98.90;;;;;;5065295;28;20473;-88
2020/12/15 05:28:13;;;;;;;35.60;5.90;;;21.10;98.90;;;;;;5038016;28;20480;-85
2020/12/15 05:30:44;;;;;;;42.17;6.40;;;21.10;98.80;;;;;;5028959;28;20501;-84
2020/12/15 05:33:15;;;;;;;38.33;6.07;;;21.00;98.70;;;;;;5028120;28;21333;-87
2020/12/15 05:35:43;;;;;;;43.50;6.05;;;21.10;98.90;;;;;;5036973;28;20885;-88
2020/12/15 05:38:10;;;;;;;41.20;6.95;;;21.10;98.70;;;;;;5051666;28;20401;-85
2020/12/15 05:40:39;;;;;;;35.72;5.97;;;21.20;98.60;;;;;;5034536;28;20419;-87
2020/12/15 05:43:06;;;;;;;33.38;6.05;;;21.20;98.70;;;;;;5048219;28;20754;-85
2020/12/15 05:45:35;;;;;;;33.03;6.93;;;21.20;98.30;;;;;;5044301;28;20444;-86
2020/12/15 05:48:07;;;;;;;31.13;5.60;;;21.30;98.30;;;;;;5032569;28;20390;-84
2020/12/15 05:50:36;;;;;;;37.90;6.60;;;21.30;98.50;;;;;;5037716;28;20453;-84
2020/12/15 05:53:09;;;;;;;29.67;5.32;;;21.30;98.30;;;;;;5044812;28;20401;-87
2020/12/15 05:55:36;;;;;;;34.30;6.07;;;21.30;98.20;;;;;;5032530;28;20873;-85
2020/12/15 05:58:05;;;;;;;38.63;6.05;;;21.30;98.20;;;;;;5032766;28;20404;-85
2020/12/15 06:00:33;;;;;;;35.95;6.45;;;21.30;98.30;;;;;;5043714;28;20395;-84
2020/12/15 06:03:02;;;;;;;41.20;6.32;;;21.30;98.30;;;;;;5041375;28;20424;-88
2020/12/15 06:05:31;;;;;;;39.67;6.07;;;21.20;98.20;;;;;;5034350;28;20404;-89
2020/12/15 06:08:00;;;;;;;38.57;6.70;;;21.20;98.40;;;;;;5052441;28;20768;-85
2020/12/15 06:10:28;;;;;;;35.17;6.28;;;21.20;98.40;;;;;;5059630;28;20421;-88
2020/12/15 06:12:59;;;;;;;38.28;6.82;;;21.20;98.40;;;;;;5045998;28;20386;-85
2020/12/15 06:15:27;;;;;;;47.03;6.78;;;21.20;98.50;;;;;;5016909;28;20445;-85
2020/12/15 06:17:57;;;;;;;47.63;7.63;;;21.20;98.60;;;;;;5032518;28;20410;-87
2020/12/15 06:20:38;;;;;;;41.03;6.70;;;21.20;98.40;;;;;;5037644;28;20774;-86
2020/12/15 06:23:11;;;;;;;43.85;6.82;;;21.20;98.20;;;;;;5051585;28;20754;-86
2020/12/15 06:25:39;;;;;;;40.30;6.82;;;21.20;98.50;;;;;;5050900;28;20521;-87
2020/12/15 06:28:10;;;;;;;41.70;6.72;;;21.20;98.40;;;;;;5049307;28;21275;-86
2020/12/15 06:30:39;;;;;;;42.67;7.37;;;21.20;98.40;;;;;;5052982;28;20392;-86
2020/12/15 06:33:09;;;;;;;38.00;6.28;;;21.20;98.30;;;;;;5033690;28;20376;-86
2020/12/15 06:35:37;;;;;;;45.88;7.03;;;21.30;98.30;;;;;;5047316;28;21248;-87
2020/12/15 06:38:18;;;;;;;37.88;6.80;;;21.30;98.10;;;;;;5049122;28;20384;-86
2020/12/15 06:40:46;;;;;;;41.47;6.95;;;21.30;97.90;;;;;;5050566;28;20387;-86
2020/12/15 06:43:30;;;;;;;44.10;6.22;;;21.30;98.00;;;;;;5053868;28;20399;-85
2020/12/15 06:46:13;;;;;;;39.78;6.30;;;21.40;97.80;;;;;;5050956;28;20402;-87
2020/12/15 06:48:44;;;;;;;38.92;6.63;;;21.30;98.00;;;;;;5051075;28;20407;-87
2020/12/15 06:51:12;;;;;;;40.92;7.50;;;21.40;98.10;;;;;;5051081;28;20414;-84
2020/12/15 06:53:39;;;;;;;36.13;6.23;;;21.30;98.00;;;;;;5048169;28;20546;-87
2020/12/15 06:56:09;;;;;;;45.88;6.97;;;21.30;98.00;;;;;;5042462;28;20822;-86
2020/12/15 06:58:37;;;;;;;40.75;6.78;;;21.30;98.20;;;;;;5019976;28;20403;-86
2020/12/15 07:01:04;;;;;;;44.28;6.63;;;21.30;98.10;;;;;;5048169;28;20890;-87
2020/12/15 07:03:42;;;;;;;38.83;6.43;;;21.20;98.20;;;;;;5047744;28;20401;-85
2020/12/15 07:06:13;;;;;;;45.17;6.72;;;21.30;98.00;;;;;;5049167;28;20392;-86
2020/12/15 07:08:40;;;;;;;40.63;6.70;;;21.20;98.20;;;;;;5051134;28;20449;-87
2020/12/15 07:11:07;;;;;;;42.63;6.45;;;21.20;98.30;;;;;;5027573;28;20403;-86
2020/12/15 07:13:34;;;;;;;44.85;6.97;;;21.20;98.20;;;;;;5047630;28;20440;-86
2020/12/15 07:16:01;;;;;;;44.85;6.70;;;21.20;98.20;;;;;;5051544;28;20471;-87
2020/12/15 07:18:32;;;;;;;47.13;7.05;;;21.10;98.40;;;;;;5053379;28;20399;-87
2020/12/15 07:21:02;;;;;;;39.13;7.07;;;21.10;98.50;;;;;;5041539;28;20916;-86
2020/12/15 07:23:29;;;;;;;44.67;6.43;;;21.10;98.40;;;;;;5052364;28;20425;-88
2020/12/15 07:25:56;;;;;;;44.08;7.55;;;21.00;98.50;;;;;;5057065;28;20401;-86
2020/12/15 07:28:23;;;;;;;40.25;6.97;;;21.00;98.70;;;;;;5053302;28;20399;-86
2020/12/15 07:30:51;;;;;;;35.20;5.18;;;21.00;98.70;;;;;;5049176;28;20398;-85
2020/12/15 07:33:18;;;;;;;37.75;6.43;;;21.00;98.70;;;;;;5033913;28;20921;-84
2020/12/15 07:35:45;;;;;;;34.60;5.90;;;20.90;98.90;;;;;;5047918;28;20405;-88
2020/12/15 07:38:13;;;;;;;24.20;4.68;;;20.90;99.00;;;;;;5050478;28;20392;-86
2020/12/15 07:40:40;;;;;;;32.78;5.25;;;20.90;98.90;;;;;;5046922;28;20405;-85
2020/12/15 07:43:08;;;;;;;33.80;5.35;;;20.80;99.10;;;;;;5049870;28;20434;-88
2020/12/15 07:45:36;;;;;;;23.98;4.65;;;20.80;99.30;;;;;;5029844;28;20404;-86
2020/12/15 07:48:06;;;;;;;26.20;4.60;;;20.70;99.40;;;;;;5053195;28;20473;-90
2020/12/15 07:50:34;;;;;;;28.45;4.95;;;20.70;99.40;;;;;;5046644;28;20822;-88
2020/12/15 07:53:10;;;;;;;28.50;4.68;;;20.70;99.60;;;;;;5054959;28;20382;-88
2020/12/15 07:55:37;;;;;;;30.25;5.00;;;20.70;99.50;;;;;;5065616;28;20420;-88
2020/12/15 07:58:13;;;;;;;34.53;5.70;;;20.70;99.40;;;;;;5025303;28;20395;-89
2020/12/15 08:00:40;;;;;;;31.77;4.60;;;20.60;99.40;;;;;;5049446;28;20823;-89
2020/12/15 08:03:07;;;;;;;36.55;5.72;;;20.70;99.40;;;;;;5024818;28;20389;-88
2020/12/15 08:05:34;;;;;;;30.85;5.35;;;20.70;99.40;;;;;;5042018;28;20390;-87
2020/12/15 08:08:03;;;;;;;27.35;4.85;;;20.60;99.40;;;;;;5035950;28;20432;-90
2020/12/15 08:10:32;;;;;;;26.83;4.50;;;20.70;99.50;;;;;;5040535;28;20420;-88
2020/12/15 08:13:01;;;;;;;24.13;4.28;;;20.70;99.80;;;;;;5038938;28;20427;-85
2020/12/15 08:15:30;;;;;;;30.77;5.35;;;20.60;99.50;;;;;;5048813;28;20467;-91
2020/12/15 08:17:58;;;;;;;24.40;4.68;;;20.60;99.60;;;;;;5054088;28;20395;-85
2020/12/15 08:20:30;;;;;;;27.50;5.05;;;20.60;99.70;;;;;;5048827;28;20404;-84
2020/12/15 08:23:07;;;;;;;32.30;6.07;;;20.60;99.70;;;;;;5045502;28;21254;-82
2020/12/15 08:25:35;;;;;;;33.22;5.68;;;20.60;99.80;;;;;;5050544;28;20409;-85
2020/12/15 08:28:22;;;;;;;31.90;5.15;;;20.60;99.90;;;;;;5047839;28;20402;-84
2020/12/15 08:30:54;;;;;;;37.17;6.15;;;20.50;99.90;;;;;;5025207;28;20790;-83
2020/12/15 08:33:29;;;;;;;36.65;5.40;;;20.50;99.90;;;;;;5031586;28;20399;-85
2020/12/15 08:35:58;;;;;;;30.67;5.05;;;20.50;99.90;;;;;;5044400;28;21062;-84
2020/12/15 08:38:26;;;;;;;31.30;5.20;;;20.50;99.90;;;;;;5046166;28;20379;-83
2020/12/15 08:40:54;;;;;;;28.23;5.32;;;20.50;99.80;;;;;;5056512;28;20620;-85
2020/12/15 08:43:22;;;;;;;38.72;5.82;;;20.50;99.70;;;;;;5046212;28;20394;-85
2020/12/15 08:45:49;;;;;;;30.98;4.95;;;20.50;99.70;;;;;;5041163;28;20427;-83
2020/12/15 08:48:24;;;;;;;32.83;5.65;;;20.50;99.70;;;;;;5044400;28;20442;-84
2020/12/15 08:50:52;;;;;;;37.67;6.07;;;20.50;99.80;;;;;;5045452;28;20387;-83
2020/12/15 08:53:20;;;;;;;42.17;6.50;;;20.50;99.70;;;;;;5045381;28;20467;-83
2020/12/15 08:55:49;;;;;;;39.47;6.18;;;20.50;99.70;;;;;;5045725;28;20390;-85
2020/12/15 08:58:16;;;;;;;33.38;6.13;;;20.60;99.80;;;;;;5045680;28;20958;-85
2020/12/15 09:00:45;;;;;;;28.52;5.28;;;20.50;99.80;;;;;;5057707;28;20401;-85
2020/12/15 09:03:14;;;;;;;37.58;5.22;;;20.50;99.80;;;;;;5066208;28;20383;-85
2020/12/15 09:05:58;;;;;;;26.15;4.07;;;20.50;99.90;;;;;;5058051;28;20431;-83
2020/12/15 09:08:27;;;;;;;25.58;4.55;;;20.50;99.90;;;;;;5044449;28;20478;-83
2020/12/15 09:10:56;;;;;;;29.08;5.20;;;20.50;99.90;;;;;;5046197;28;20499;-83
2020/12/15 09:13:24;;;;;;;24.77;4.25;;;20.50;99.90;;;;;;5066001;28;20869;-85
2020/12/15 09:15:55;;;;;;;36.35;5.35;;;20.50;99.90;;;;;;5046171;28;20406;-85
2020/12/15 09:18:35;;;;;;;38.25;5.90;;;20.50;99.90;;;;;;5045102;28;20552;-84
2020/12/15 09:21:18;;;;;;;29.65;5.35;;;20.50;99.90;;;;;;5048829;28;20743;-85
2020/12/15 09:23:54;;;;;;;34.55;5.50;;;20.50;99.90;;;;;;5035672;28;20930;-86
2020/12/15 09:26:22;;;;;;;29.65;4.40;;;20.50;99.90;;;;;;5046105;28;20383;-83
2020/12/15 09:28:50;;;;;;;20.45;3.72;;;20.40;99.90;;;;;;5049337;28;20406;-84
2020/12/15 09:31:19;;;;;;;27.27;4.18;;;20.50;99.90;;;;;;5053782;28;20384;-84
2020/12/15 09:33:46;;;;;;;23.13;4.00;;;20.40;99.90;;;;;;5045877;28;20382;-83
2020/12/15 09:36:15;;;;;;;26.83;4.50;;;20.40;99.90;;;;;;5045491;28;20388;-84
2020/12/15 09:38:42;;;;;;;28.00;4.57;;;20.40;99.90;;;;;;5045805;28;20372;-83
2020/12/15 09:41:09;;;;;;;30.92;5.07;;;20.40;99.90;;;;;;5045710;28;20407;-83
2020/12/15 09:43:36;;;;;;;24.30;3.95;;;20.40;99.90;;;;;;5045845;28;20383;-84
2020/12/15 09:46:04;;;;;;;29.05;4.55;;;20.40;99.90;;;;;;5047430;28;20407;-83
2020/12/15 09:48:31;;;;;;;20.77;3.55;;;20.40;99.90;;;;;;5055732;28;20414;-84
2020/12/15 09:51:00;;;;;;;21.67;3.58;;;20.40;99.90;;;;;;5046120;28;20475;-83
2020/12/15 09:53:27;;;;;;;24.88;3.50;;;20.40;99.90;;;;;;5047153;28;20435;-85
2020/12/15 09:55:54;;;;;;;14.20;2.70;;;20.40;99.90;;;;;;5047653;28;21256;-84
2020/12/15 09:58:21;;;;;;;18.00;3.08;;;20.40;99.90;;;;;;5048634;28;20376;-85
2020/12/15 10:00:48;;;;;;;12.13;2.22;;;20.40;99.90;;;;;;5043482;28;20384;-85
2020/12/15 10:03:16;;;;;;;12.30;2.17;;;20.40;99.90;;;;;;5046939;28;20371;-85
2020/12/15 10:05:43;;;;;;;9.02;1.80;;;20.50;99.90;;;;;;5046508;28;20995;-85
2020/12/15 10:08:10;;;;;;;7.30;1.77;;;20.40;99.90;;;;;;5046267;28;20371;-84
2020/12/15 10:10:37;;;;;;;9.57;1.60;;;20.40;99.90;;;;;;5045137;28;20408;-84
2020/12/15 10:13:04;;;;;;;7.55;1.60;;;20.40;99.90;;;;;;5045380;28;20394;-83
2020/12/15 10:15:31;;;;;;;7.47;1.37;;;20.40;99.90;;;;;;5045638;28;20769;-83
2020/12/15 10:17:59;;;;;;;7.97;1.23;;;20.40;99.90;;;;;;5047313;28;20380;-84
2020/12/15 10:20:26;;;;;;;7.82;1.40;;;20.40;99.90;;;;;;5047634;28;20422;-84
2020/12/15 10:22:54;;;;;;;7.85;1.60;;;20.40;99.90;;;;;;5047159;28;20402;-85
2020/12/15 10:25:21;;;;;;;9.40;1.60;;;20.40;99.90;;;;;;5046835;28;20386;-84
2020/12/15 10:27:48;;;;;;;6.82;1.30;;;20.50;99.90;;;;;;5049065;28;20430;-83
2020/12/15 10:30:15;;;;;;;8.68;1.60;;;20.40;99.90;;;;;;5050125;28;20407;-83
2020/12/15 10:32:43;;;;;;;7.25;1.30;;;20.40;99.90;;;;;;5051141;28;20387;-84
2020/12/15 10:35:10;;;;;;;11.02;1.55;;;20.50;99.90;;;;;;5060364;28;20402;-85
2020/12/15 10:37:37;;;;;;;7.47;1.42;;;20.50;99.90;;;;;;5052912;28;20385;-86
2020/12/15 10:40:06;;;;;;;9.57;1.33;;;20.50;99.90;;;;;;5055634;28;20394;-84
2020/12/15 10:42:34;;;;;;;7.47;1.52;;;20.50;99.90;;;;;;5041637;28;20722;-86
2020/12/15 10:45:01;;;;;;;10.95;1.70;;;20.50;99.90;;;;;;5046053;28;20408;-87
2020/12/15 10:47:29;;;;;;;8.80;1.70;;;20.50;99.90;;;;;;5050107;28;20454;-87
2020/12/15 10:49:56;;;;;;;7.78;1.52;;;20.50;99.90;;;;;;5042810;28;20407;-87
2020/12/15 10:52:23;;;;;;;8.48;1.48;;;20.50;99.90;;;;;;5052106;28;20395;-84
2020/12/15 10:54:50;;;;;;;8.18;1.70;;;20.50;99.90;;;;;;5045819;28;20456;-86
2020/12/15 10:57:17;;;;;;;6.80;1.45;;;20.50;99.90;;;;;;5045179;28;20861;-84
2020/12/15 10:59:44;;;;;;;6.97;1.35;;;20.50;99.90;;;;;;5029590;28;20408;-86
2020/12/15 11:02:13;;;;;;;10.57;1.83;;;20.50;99.90;;;;;;5039418;28;20800;-84
2020/12/15 11:04:40;;;;;;;11.32;1.65;;;20.50;99.90;;;;;;5050509;28;20387;-84
2020/12/15 11:07:07;;;;;;;10.02;1.58;;;20.50;99.90;;;;;;5048816;28;20747;-84
2020/12/15 11:09:35;;;;;;;7.13;1.52;;;20.60;99.90;;;;;;5047306;28;20400;-84
2020/12/15 11:12:02;;;;;;;7.35;1.50;;;20.60;99.90;;;;;;5045298;28;20439;-82
2020/12/15 11:14:30;;;;;;;7.10;1.65;;;20.60;99.90;;;;;;5046442;28;20375;-83
2020/12/15 11:17:00;;;;;;;9.70;1.25;;;20.60;99.90;;;;;;5050912;28;20403;-83
2020/12/15 11:19:27;;;;;;;8.25;1.30;;;20.60;99.90;;;;;;5032096;28;20454;-83
2020/12/15 11:21:54;;;;;;;7.03;1.40;;;20.60;99.90;;;;;;5045055;28;20406;-85
2020/12/15 11:24:21;;;;;;;6.10;1.48;;;20.60;99.90;;;;;;5052341;28;20749;-84
2020/12/15 11:26:51;;;;;;;5.35;1.10;;;20.60;99.90;;;;;;5043952;28;20411;-84
2020/12/15 11:29:18;;;;;;;9.00;1.50;;;20.60;99.90;;;;;;5030471;28;20417;-84
2020/12/15 11:31:53;;;;;;;6.68;1.10;;;20.70;99.90;;;;;;5021557;28;20984;-84
2020/12/15 11:34:20;;;;;;;6.53;1.15;;;20.70;99.90;;;;;;5048136;28;20395;-84
2020/12/15 11:36:52;;;;;;;6.77;1.27;;;20.70;99.90;;;;;;5044293;28;21237;-83
2020/12/15 11:39:19;;;;;;;6.63;1.33;;;20.70;99.90;;;;;;5046539;28;20462;-85
2020/12/15 11:41:46;;;;;;;6.50;1.23;;;20.70;99.90;;;;;;5057941;28;20374;-85
2020/12/15 11:44:13;;;;;;;8.85;1.95;;;20.70;99.90;;;;;;5045501;28;20394;-85
2020/12/15 11:46:40;;;;;;;5.25;1.20;;;20.70;99.90;;;;;;5031584;28;20476;-85
2020/12/15 11:49:08;;;;;;;6.72;1.45;;;20.70;99.90;;;;;;5032186;28;20407;-85
2020/12/15 11:51:34;;;;;;;5.55;1.15;;;20.70;99.90;;;;;;5024430;28;20400;-85
2020/12/15 11:54:02;;;;;;;6.95;1.10;;;20.70;99.90;;;;;;5028670;28;20453;-83
2020/12/15 11:56:29;;;;;;;6.03;1.13;;;20.70;99.90;;;;;;5031579;28;20411;-82
2020/12/15 11:58:56;;;;;;;6.40;1.35;;;20.70;99.90;;;;;;5049628;28;20987;-83
2020/12/15 12:01:23;;;;;;;13.95;2.30;;;20.70;99.90;;;;;;5044485;28;20439;-83
2020/12/15 12:03:50;;;;;;;20.70;3.53;;;20.70;99.90;;;;;;5045524;28;20490;-82
2020/12/15 12:06:17;;;;;;;22.40;4.53;;;20.70;99.90;;;;;;5060767;28;20378;-83
2020/12/15 12:08:44;;;;;;;22.58;4.22;;;20.70;99.90;;;;;;5046759;28;20409;-82
2020/12/15 12:11:11;;;;;;;23.80;4.18;;;20.70;99.90;;;;;;5056486;28;20394;-82
2020/12/15 12:13:38;;;;;;;19.73;3.30;;;20.70;99.90;;;;;;5067345;28;20389;-82
2020/12/15 12:16:05;;;;;;;20.05;3.38;;;20.70;99.90;;;;;;5045259;28;20416;-83
2020/12/15 12:18:32;;;;;;;16.13;3.10;;;20.70;99.90;;;;;;5044484;28;20431;-82
2020/12/15 12:20:59;;;;;;;22.15;3.03;;;20.80;99.90;;;;;;5065985;28;20404;-83
2020/12/15 12:23:26;;;;;;;17.13;3.20;;;20.70;99.90;;;;;;5048625;28;20479;-83
2020/12/15 12:25:53;;;;;;;22.42;3.53;;;20.70;99.90;;;;;;5028535;28;20488;-83
2020/12/15 12:28:21;;;;;;;27.20;3.75;;;20.80;99.90;;;;;;5046993;28;20480;-83
2020/12/15 12:30:48;;;;;;;22.33;3.90;;;20.70;99.90;;;;;;5034374;28;20765;-86
2020/12/15 12:33:15;;;;;;;15.98;3.22;;;20.70;99.90;;;;;;5024076;28;20473;-85
2020/12/15 12:35:42;;;;;;;27.02;3.60;;;20.70;99.90;;;;;;5049147;28;20515;-85
2020/12/15 12:38:12;;;;;;;23.98;3.95;;;20.70;99.90;;;;;;5047247;28;20412;-84
2020/12/15 12:40:40;;;;;;;26.25;4.57;;;20.70;99.90;;;;;;5050969;28;20395;-83
2020/12/15 12:43:07;;;;;;;31.55;4.72;;;20.70;99.90;;;;;;5049692;28;20387;-83
2020/12/15 12:45:40;;;;;;;33.55;4.68;;;20.70;99.90;;;;;;5061961;28;20488;-83